createdAt,value
2019-04-26T00:01:18.486Z,18.90
2019-04-26T00:03:46.953Z,19.75
2019-04-26T00:13:45.499Z,20.25
2019-04-26T00:16:21.269Z,19.77
2019-04-26T00:18:48.649Z,20.10
2019-04-26T00:21:16.179Z,22.73
2019-04-26T00:23:43.596Z,21.05
2019-04-26T00:26:12.274Z,21.27
2019-04-26T00:28:40.142Z,20.65
2019-04-26T00:31:07.327Z,17.15
2019-04-26T00:33:34.421Z,13.35
2019-04-26T00:36:01.618Z,15.65
2019-04-26T00:38:31.639Z,14.10
2019-04-26T00:40:58.842Z,15.32
2019-04-26T00:43:26.110Z,15.80
2019-04-26T00:45:55.365Z,15.08
2019-04-26T00:48:24.153Z,15.72
2019-04-26T00:50:52.403Z,16.02
2019-04-26T00:53:21.793Z,16.73
2019-04-26T00:55:51.336Z,14.80
2019-04-26T00:58:20.405Z,13.85
2019-04-26T01:00:48.136Z,15.13
2019-04-26T01:03:15.736Z,16.15
2019-04-26T01:05:43.745Z,16.77
2019-04-26T01:08:10.909Z,17.12
2019-04-26T01:10:38.513Z,16.82
2019-04-26T01:13:05.849Z,16.12
2019-04-26T01:15:32.869Z,16.42
2019-04-26T01:18:00.248Z,15.72
2019-04-26T01:20:30.741Z,15.68
2019-04-26T01:23:02.453Z,16.15
2019-04-26T01:25:42.740Z,14.75
2019-04-26T01:28:15.492Z,15.10
2019-04-26T01:30:43.463Z,14.90
2019-04-26T01:33:10.904Z,13.95
2019-04-26T01:35:38.673Z,14.78
2019-04-26T01:38:09.984Z,14.85
2019-04-26T01:40:39.482Z,16.30
2019-04-26T01:43:07.503Z,14.10
2019-04-26T01:45:47.652Z,13.38
2019-04-26T01:48:44.683Z,13.55
2019-04-26T01:51:37.205Z,14.23
2019-04-26T01:54:05.288Z,15.15
2019-04-26T01:56:34.992Z,14.87
2019-04-26T01:59:04.302Z,14.25
2019-04-26T02:01:36.585Z,13.30
2019-04-26T02:04:04.575Z,13.72
2019-04-26T02:06:35.075Z,13.60
2019-04-26T02:09:01.682Z,13.00
2019-04-26T02:11:28.961Z,13.13
2019-04-26T02:13:56.537Z,12.98
2019-04-26T02:16:25.052Z,12.90
2019-04-26T02:18:53.058Z,12.23
2019-04-26T02:21:23.648Z,13.35
2019-04-26T02:24:13.426Z,12.43
2019-04-26T02:26:46.288Z,11.65
2019-04-26T02:29:19.021Z,11.63
2019-04-26T02:31:50.861Z,10.63
2019-04-26T02:34:17.962Z,10.75
2019-04-26T02:36:57.394Z,11.00
2019-04-26T02:39:21.804Z,11.30
2019-04-26T02:41:53.213Z,11.80
2019-04-26T02:44:26.639Z,10.65
2019-04-26T02:47:30.919Z,9.45
2019-04-26T02:50:05.925Z,8.88
2019-04-26T02:52:54.236Z,10.23
2019-04-26T02:55:42.393Z,8.28
2019-04-26T02:58:11.360Z,8.55
2019-04-26T03:00:39.243Z,8.40
2019-04-26T03:03:06.764Z,7.87
2019-04-26T03:05:39.665Z,7.62
2019-04-26T03:08:11.539Z,8.33
2019-04-26T03:10:43.510Z,7.78
2019-04-26T03:13:17.120Z,8.18
2019-04-26T03:16:00.504Z,8.93
2019-04-26T03:18:33.502Z,8.23
2019-04-26T03:21:09.821Z,7.95
2019-04-26T03:23:58.283Z,8.60
2019-04-26T03:26:33.712Z,8.08
2019-04-26T03:29:09.708Z,7.95
2019-04-26T03:31:54.538Z,6.62
2019-04-26T03:34:55.048Z,6.45
2019-04-26T03:37:42.706Z,7.20
2019-04-26T03:40:53.589Z,7.95
2019-04-26T03:43:50.142Z,11.48
2019-04-26T03:46:45.172Z,8.30
2019-04-26T03:49:36.113Z,6.90
2019-04-26T03:52:27.578Z,7.35
2019-04-26T03:55:03.525Z,7.12
2019-04-26T03:57:55.138Z,7.40
2019-04-26T04:00:47.053Z,7.80
2019-04-26T04:03:30.522Z,7.65
2019-04-26T04:06:01.948Z,8.20
2019-04-26T04:08:48.321Z,8.53
2019-04-26T04:11:24.061Z,7.33
2019-04-26T04:14:02.513Z,7.40
2019-04-26T04:16:49.164Z,8.25
2019-04-26T04:20:14.700Z,9.95
2019-04-26T04:23:05.499Z,8.23
2019-04-26T04:25:45.363Z,8.28
2019-04-26T04:28:42.483Z,8.23
2019-04-26T04:31:39.798Z,9.75
2019-04-26T04:34:35.550Z,8.38
2019-04-26T04:37:06.067Z,7.65
2019-04-26T04:39:38.711Z,8.90
2019-04-26T04:42:29.286Z,9.58
2019-04-26T04:45:32.104Z,10.13
2019-04-26T04:48:19.719Z,11.12
2019-04-26T04:51:13.334Z,10.63
2019-04-26T04:53:54.981Z,9.98
2019-04-26T04:56:43.600Z,10.58
2019-04-26T04:59:27.416Z,6.90
2019-04-26T05:02:39.664Z,7.47
2019-04-26T05:05:43.636Z,8.10
2019-04-26T05:08:41.243Z,7.33
2019-04-26T05:11:18.988Z,7.72
2019-04-26T05:14:08.903Z,8.83
2019-04-26T05:17:10.384Z,6.67
2019-04-26T05:20:13.895Z,6.80
2019-04-26T05:23:18.386Z,5.85
2019-04-26T05:26:57.903Z,6.08
2019-04-26T05:29:52.097Z,7.28
2019-04-26T05:32:33.809Z,7.03
2019-04-26T05:35:55.164Z,5.35
2019-04-26T05:38:55.469Z,7.65
2019-04-26T05:41:35.993Z,8.08
2019-04-26T05:45:08.743Z,8.73
2019-04-26T05:48:10.387Z,8.95
2019-04-26T05:51:08.392Z,9.93
2019-04-26T05:54:18.424Z,9.38
2019-04-26T05:57:05.845Z,7.15
2019-04-26T05:59:50.616Z,4.75
2019-04-26T06:02:29.477Z,4.25
2019-04-26T06:05:16.250Z,3.30
2019-04-26T06:08:05.244Z,3.08
2019-04-26T06:10:38.404Z,3.17
2019-04-26T06:13:28.802Z,3.22
2019-04-26T06:16:26.308Z,2.95
2019-04-26T06:19:22.041Z,3.30
2019-04-26T06:22:06.335Z,3.15
2019-04-26T06:24:56.108Z,2.67
2019-04-26T06:27:36.747Z,3.12
2019-04-26T06:30:15.384Z,3.20
2019-04-26T06:33:06.101Z,3.12
2019-04-26T06:35:36.208Z,2.90
2019-04-26T06:38:54.500Z,3.20
2019-04-26T06:42:05.779Z,3.25
2019-04-26T06:45:02.810Z,3.58
2019-04-26T06:47:41.265Z,2.75
2019-04-26T06:50:28.437Z,2.67
2019-04-26T06:53:09.090Z,2.75
2019-04-26T06:55:43.927Z,2.72
2019-04-26T06:58:42.822Z,2.60
2019-04-26T07:01:20.166Z,2.52
2019-04-26T07:04:05.206Z,3.25
2019-04-26T07:06:50.963Z,2.92
2019-04-26T07:09:23.561Z,2.42
2019-04-26T07:12:24.490Z,2.50
2019-04-26T07:15:03.819Z,2.33
2019-04-26T07:18:00.929Z,3.08
2019-04-26T07:20:34.773Z,2.42
2019-04-26T07:23:18.634Z,2.52
2019-04-26T07:26:14.279Z,2.62
2019-04-26T07:29:12.026Z,3.33
2019-04-26T07:32:03.376Z,3.22
2019-04-26T07:34:49.027Z,2.80
2019-04-26T07:37:43.217Z,2.92
2019-04-26T07:40:45.269Z,2.98
2019-04-26T07:43:33.994Z,2.70
2019-04-26T07:46:44.143Z,2.65
2019-04-26T07:49:52.094Z,2.67
2019-04-26T07:52:50.932Z,2.60
2019-04-26T07:55:47.872Z,2.85
2019-04-26T07:59:14.687Z,2.30
2019-04-26T08:01:51.088Z,2.50
2019-04-26T08:04:30.987Z,2.27
2019-04-26T08:07:20.620Z,2.40
2019-04-26T08:10:12.367Z,2.75
2019-04-26T08:12:42.950Z,2.52
2019-04-26T08:15:20.318Z,2.75
2019-04-26T08:17:53.699Z,2.55
2019-04-26T08:20:39.777Z,2.40
2019-04-26T08:23:28.200Z,2.35
2019-04-26T08:25:43.140Z,2.60
2019-04-26T08:28:14.269Z,2.65
2019-04-26T08:30:46.266Z,2.75
2019-04-26T08:33:20.329Z,3.00
2019-04-26T08:35:53.241Z,2.80
2019-04-26T08:38:23.026Z,2.60
2019-04-26T08:40:51.116Z,2.50
2019-04-26T08:43:37.692Z,2.90
2019-04-26T08:46:12.596Z,2.50
2019-04-26T08:48:48.628Z,2.02
2019-04-26T08:51:20.568Z,2.95
2019-04-26T08:53:51.186Z,2.30
2019-04-26T08:56:29.748Z,2.92
2019-04-26T08:59:22.272Z,2.87
2019-04-26T09:01:59.922Z,2.87
2019-04-26T09:04:47.824Z,3.08
2019-04-26T09:07:20.426Z,2.45
2019-04-26T09:09:57.164Z,4.50
2019-04-26T09:12:23.699Z,2.62
2019-04-26T09:14:54.180Z,2.50
2019-04-26T09:17:21.342Z,2.80
2019-04-26T09:19:48.395Z,2.85
2019-04-26T09:22:22.601Z,3.15
2019-04-26T09:24:49.415Z,2.70
2019-04-26T09:27:21.104Z,2.72
2019-04-26T09:29:49.511Z,2.70
2019-04-26T09:32:28.028Z,2.72
2019-04-26T09:34:56.442Z,2.67
2019-04-26T09:37:23.590Z,2.72
2019-04-26T09:39:50.639Z,2.80
2019-04-26T09:42:25.775Z,2.50
2019-04-26T09:45:03.779Z,3.05
2019-04-26T09:47:32.897Z,2.60
2019-04-26T09:50:18.484Z,3.50
2019-04-26T09:52:52.896Z,3.52
2019-04-26T09:55:20.162Z,2.95
2019-04-26T09:57:47.081Z,3.60
2019-04-26T10:00:17.524Z,3.30
2019-04-26T10:02:44.859Z,3.37
2019-04-26T10:05:13.598Z,3.12
2019-04-26T10:07:41.081Z,2.77
2019-04-26T10:10:09.162Z,3.45
2019-04-26T10:12:40.875Z,3.40
2019-04-26T10:15:28.106Z,3.55
2019-04-26T10:17:55.407Z,3.35
2019-04-26T10:20:22.757Z,3.17
2019-04-26T10:22:49.664Z,3.75
2019-04-26T10:25:17.186Z,3.20
2019-04-26T10:27:44.135Z,4.25
2019-04-26T10:30:13.199Z,3.60
2019-04-26T10:32:40.349Z,3.70
2019-04-26T10:35:07.985Z,3.40
2019-04-26T10:37:39.756Z,3.90
2019-04-26T10:40:07.952Z,4.22
2019-04-26T10:42:34.959Z,4.83
2019-04-26T10:45:06.717Z,3.90
2019-04-26T10:47:34.291Z,4.03
2019-04-26T10:50:01.605Z,3.45
2019-04-26T10:52:53.319Z,4.10
2019-04-26T10:55:20.923Z,4.10
2019-04-26T10:57:57.516Z,4.15
2019-04-26T11:00:26.572Z,3.95
2019-04-26T11:02:53.569Z,3.95
2019-04-26T11:05:21.364Z,3.85
2019-04-26T11:07:48.483Z,3.45
2019-04-26T11:10:16.345Z,4.03
2019-04-26T11:12:44.753Z,4.37
2019-04-26T11:15:13.889Z,3.83
2019-04-26T11:17:41.288Z,3.70
2019-04-26T11:20:10.391Z,4.40
2019-04-26T11:22:39.076Z,4.40
2019-04-26T11:25:06.970Z,4.47
2019-04-26T11:27:34.157Z,4.22
2019-04-26T11:30:11.138Z,4.00
2019-04-26T11:32:33.094Z,4.17
2019-04-26T11:35:00.492Z,3.67
2019-04-26T11:37:27.538Z,4.45
2019-04-26T11:39:54.853Z,4.15
2019-04-26T11:42:21.968Z,3.80
2019-04-26T11:44:49.082Z,3.75
2019-04-26T11:47:16.267Z,4.12
2019-04-26T11:49:43.452Z,4.65
2019-04-26T11:52:10.511Z,4.78
2019-04-26T11:54:37.467Z,4.78
2019-04-26T11:57:08.147Z,4.35
2019-04-26T11:59:34.029Z,4.42
2019-04-26T12:02:01.027Z,4.30
2019-04-26T12:04:49.561Z,4.30
2019-04-26T12:07:26.162Z,4.12
2019-04-26T12:09:55.123Z,3.85
2019-04-26T12:12:22.119Z,5.20
2019-04-26T12:14:49.125Z,4.70
2019-04-26T12:17:16.019Z,4.37
2019-04-26T12:19:43.269Z,4.50
2019-04-26T12:22:10.640Z,4.53
2019-04-26T12:24:38.231Z,4.58
2019-04-26T12:27:05.323Z,4.55
2019-04-26T12:29:32.793Z,5.42
2019-04-26T12:31:59.746Z,5.12
2019-04-26T12:34:26.587Z,4.85
2019-04-26T12:36:53.669Z,5.10
2019-04-26T12:39:21.018Z,4.87
2019-04-26T12:41:48.215Z,5.03
2019-04-26T12:44:16.049Z,4.65
2019-04-26T12:46:44.862Z,4.83
2019-04-26T12:49:11.778Z,4.72
2019-04-26T12:51:42.765Z,4.97
2019-04-26T12:54:09.804Z,5.62
2019-04-26T12:56:38.437Z,4.95
2019-04-26T12:59:26.498Z,5.05
2019-04-26T13:02:05.569Z,5.92
2019-04-26T13:04:35.903Z,4.97
2019-04-26T13:07:06.757Z,5.92
2019-04-26T13:09:35.998Z,5.65
2019-04-26T13:12:10.396Z,4.87
2019-04-26T13:14:38.779Z,5.10
2019-04-26T13:17:15.714Z,5.17
2019-04-26T13:19:45.058Z,5.28
2019-04-26T13:22:12.539Z,5.78
2019-04-26T13:24:40.997Z,5.58
2019-04-26T13:27:10.494Z,5.37
2019-04-26T13:29:37.008Z,5.60
2019-04-26T13:32:04.135Z,5.85
2019-04-26T13:34:33.354Z,5.60
2019-04-26T13:37:02.980Z,5.78
2019-04-26T13:39:29.535Z,5.75
2019-04-26T13:42:04.386Z,5.65
2019-04-26T13:44:43.848Z,5.97
2019-04-26T13:47:23.147Z,5.65
2019-04-26T13:49:53.436Z,6.53
2019-04-26T13:52:20.412Z,5.40
2019-04-26T13:54:47.455Z,5.67
2019-04-26T13:57:14.442Z,6.47
2019-04-26T13:59:41.393Z,6.60
2019-04-26T14:02:11.762Z,6.50
2019-04-26T14:04:41.011Z,5.83
2019-04-26T14:07:06.563Z,6.87
2019-04-26T14:09:33.463Z,5.87
2019-04-26T14:12:03.358Z,6.55
2019-04-26T14:14:30.297Z,6.53
2019-04-26T14:16:58.756Z,6.47
2019-04-26T14:19:25.937Z,6.30
2019-04-26T14:21:53.303Z,6.85
2019-04-26T14:24:28.499Z,6.35
2019-04-26T14:26:57.678Z,6.35
2019-04-26T14:29:28.387Z,6.35
2019-04-26T14:31:53.390Z,6.00
2019-04-26T14:34:20.733Z,6.60
2019-04-26T14:36:47.924Z,6.15
2019-04-26T14:39:19.421Z,6.37
2019-04-26T14:41:44.017Z,5.97
2019-04-26T14:44:15.680Z,5.55
2019-04-26T14:46:48.588Z,6.28
2019-04-26T14:49:09.151Z,5.53
2019-04-26T14:51:36.063Z,6.50
2019-04-26T14:54:07.314Z,6.22
2019-04-26T14:56:32.688Z,6.70
2019-04-26T14:59:01.839Z,6.47
2019-04-26T15:01:37.929Z,6.00
2019-04-26T15:04:28.174Z,5.97
2019-04-26T15:06:58.214Z,6.17
2019-04-26T15:09:29.799Z,6.15
2019-04-26T15:11:57.781Z,6.12
2019-04-26T15:14:22.890Z,5.90
2019-04-26T15:16:50.078Z,6.97
2019-04-26T15:19:17.315Z,6.40
2019-04-26T15:21:44.636Z,6.67
2019-04-26T15:24:12.822Z,6.12
2019-04-26T15:26:39.911Z,6.90
2019-04-26T15:29:07.032Z,6.37
2019-04-26T15:31:33.975Z,5.62
2019-04-26T15:34:01.018Z,6.50
2019-04-26T15:36:28.132Z,6.25
2019-04-26T15:38:55.859Z,6.20
2019-04-26T15:41:43.106Z,6.50
2019-04-26T15:44:29.339Z,7.58
2019-04-26T15:49:37.087Z,6.70
2019-04-26T15:52:04.506Z,6.53
2019-04-26T15:54:32.483Z,6.45
2019-04-26T15:57:00.043Z,6.92
2019-04-26T15:59:27.143Z,6.22
2019-04-26T16:01:56.296Z,6.87
2019-04-26T16:04:23.906Z,6.47
2019-04-26T16:06:52.222Z,6.75
2019-04-26T16:09:20.671Z,7.12
2019-04-26T16:11:49.810Z,6.95
2019-04-26T16:14:17.269Z,6.53
2019-04-26T16:16:44.188Z,6.55
2019-04-26T16:19:12.988Z,6.72
2019-04-26T16:21:40.447Z,6.15
2019-04-26T16:24:07.409Z,6.37
2019-04-26T16:26:34.375Z,6.35
2019-04-26T16:29:01.389Z,6.25
2019-04-26T16:31:32.205Z,6.30
2019-04-26T16:34:06.638Z,6.60
2019-04-26T16:36:32.218Z,6.70
2019-04-26T16:38:59.278Z,6.33
2019-04-26T16:41:27.152Z,6.60
2019-04-26T16:43:54.709Z,6.15
2019-04-26T16:46:23.102Z,6.45
2019-04-26T16:48:57.077Z,5.60
2019-04-26T16:51:20.078Z,6.37
2019-04-26T16:54:05.307Z,5.25
2019-04-26T16:56:15.954Z,5.80
2019-04-26T16:58:45.403Z,5.55
2019-04-26T17:01:14.700Z,5.70
2019-04-26T17:03:46.459Z,5.58
2019-04-26T17:06:13.779Z,5.65
2019-04-26T17:08:42.797Z,5.35
2019-04-26T17:18:27.037Z,13.60
2019-04-26T17:20:54.205Z,13.88
2019-04-26T17:23:30.286Z,6.53
2019-04-26T17:26:09.262Z,6.67
2019-04-26T17:28:36.703Z,10.20
2019-04-26T17:31:04.023Z,13.28
2019-04-26T17:33:32.654Z,8.98
2019-04-26T17:36:00.000Z,7.47
2019-04-26T17:38:27.483Z,7.10
2019-04-26T17:40:54.387Z,6.30
2019-04-26T17:43:21.421Z,6.47
2019-04-26T17:45:48.528Z,8.13
2019-04-26T17:48:15.691Z,12.50
2019-04-26T17:50:42.795Z,12.65
2019-04-26T17:53:10.765Z,11.18
2019-04-26T17:55:38.366Z,8.68
2019-04-26T17:58:12.040Z,6.15
2019-04-26T18:00:45.323Z,7.47
2019-04-26T18:03:07.586Z,7.20
2019-04-26T18:05:44.900Z,8.68
2019-04-26T18:08:30.642Z,7.70
2019-04-26T18:10:30.614Z,9.13
2019-04-26T18:12:57.723Z,9.25
2019-04-26T18:15:25.046Z,9.08
2019-04-26T18:17:58.638Z,10.18
2019-04-26T18:20:33.585Z,10.40
2019-04-26T18:23:10.024Z,16.10
2019-04-26T18:25:37.497Z,14.58
2019-04-26T18:28:04.804Z,17.02
2019-04-26T18:30:33.609Z,18.30
2019-04-26T18:33:00.567Z,18.20
2019-04-26T18:35:27.739Z,17.85
2019-04-26T18:37:54.943Z,15.55
2019-04-26T18:40:23.131Z,16.15
2019-04-26T18:42:50.133Z,13.90
2019-04-26T18:45:21.591Z,12.65
2019-04-26T18:47:46.182Z,13.55
2019-04-26T18:50:13.998Z,13.20
2019-04-26T18:52:59.849Z,11.12
2019-04-26T18:55:34.488Z,12.82
2019-04-26T18:58:05.168Z,10.13
2019-04-26T19:00:33.641Z,10.63
2019-04-26T19:03:01.239Z,11.15
2019-04-26T19:05:30.512Z,11.57
2019-04-26T19:07:57.584Z,10.90
2019-04-26T19:10:25.765Z,10.35
2019-04-26T19:12:56.399Z,8.95
2019-04-26T19:15:41.676Z,8.78
2019-04-26T19:18:28.077Z,15.50
2019-04-26T19:21:03.120Z,11.57
2019-04-26T19:23:31.995Z,8.70
2019-04-26T19:25:59.370Z,7.28
2019-04-26T19:28:26.297Z,8.10
2019-04-26T19:30:53.336Z,6.85
2019-04-26T19:33:21.584Z,8.35
2019-04-26T19:35:48.800Z,7.97
2019-04-26T19:38:16.026Z,7.55
2019-04-26T19:40:48.031Z,7.08
2019-04-26T19:43:12.636Z,7.70
2019-04-26T19:45:46.219Z,7.35
2019-04-26T19:48:26.324Z,8.05
2019-04-26T19:50:55.282Z,7.33
2019-04-26T19:53:29.919Z,8.38
2019-04-26T19:56:10.898Z,8.35
2019-04-26T19:58:41.981Z,7.55
2019-04-26T20:01:09.294Z,8.48
2019-04-26T20:03:36.239Z,8.58
2019-04-26T20:06:05.024Z,9.15
2019-04-26T20:08:35.417Z,9.15
2019-04-26T20:11:01.422Z,9.18
2019-04-26T20:13:28.460Z,7.95
2019-04-26T20:15:57.401Z,9.20
2019-04-26T20:18:24.547Z,8.55
2019-04-26T20:20:52.160Z,8.38
2019-04-26T20:23:19.789Z,9.78
2019-04-26T20:25:47.003Z,10.20
2019-04-26T20:28:14.217Z,8.55
2019-04-26T20:31:07.129Z,8.55
2019-04-26T20:33:31.279Z,9.00
2019-04-26T20:36:01.900Z,8.60
2019-04-26T20:38:27.783Z,8.90
2019-04-26T20:40:55.216Z,9.45
2019-04-26T20:43:26.366Z,8.33
2019-04-26T20:46:11.054Z,9.28
2019-04-26T20:48:21.604Z,8.18
2019-04-26T20:50:48.691Z,8.03
2019-04-26T20:53:15.640Z,7.40
2019-04-26T20:55:42.825Z,7.53
2019-04-26T20:58:11.661Z,7.95
2019-04-26T21:00:38.676Z,9.25
2019-04-26T21:03:06.241Z,8.13
2019-04-26T21:05:45.834Z,8.53
2019-04-26T21:08:04.762Z,8.25
2019-04-26T21:10:32.435Z,8.80
2019-04-26T21:12:59.643Z,9.00
2019-04-26T21:15:26.859Z,8.58
2019-04-26T21:17:56.682Z,9.08
2019-04-26T21:20:22.756Z,8.40
2019-04-26T21:22:49.493Z,9.15
2019-04-26T21:25:27.669Z,9.93
2019-04-26T21:28:06.703Z,9.73
2019-04-26T21:30:39.158Z,10.10
2019-04-26T21:33:06.123Z,10.65
2019-04-26T21:35:46.934Z,9.88
2019-04-26T21:38:30.654Z,9.80
2019-04-26T21:41:12.369Z,10.78
2019-04-26T21:43:40.830Z,10.82
2019-04-26T21:46:14.173Z,11.90
2019-04-26T21:48:37.318Z,13.70
2019-04-26T21:51:08.571Z,13.65
2019-04-26T21:53:38.267Z,14.07
2019-04-26T21:56:03.503Z,15.03
2019-04-26T21:58:30.345Z,15.70
2019-04-26T22:01:03.040Z,14.98
2019-04-26T22:03:30.724Z,12.85
2019-04-26T22:05:57.883Z,12.82
2019-04-26T22:08:26.727Z,12.20
2019-04-26T22:10:53.872Z,12.05
2019-04-26T22:13:25.348Z,11.57
2019-04-26T22:15:58.297Z,11.43
2019-04-26T22:18:30.164Z,11.63
2019-04-26T22:21:01.491Z,10.90
2019-04-26T22:23:39.118Z,11.28
2019-04-26T22:26:08.556Z,9.78
2019-04-26T22:28:36.331Z,9.90
2019-04-26T22:31:08.307Z,10.43
2019-04-26T22:33:34.206Z,10.13
2019-04-26T22:36:03.770Z,10.05
2019-04-26T22:38:30.839Z,9.53
2019-04-26T22:40:57.949Z,9.55
2019-04-26T22:43:41.585Z,9.60
2019-04-26T22:46:29.897Z,9.28
2019-04-26T22:49:01.198Z,9.08
2019-04-26T22:51:28.587Z,9.58
2019-04-26T22:53:57.642Z,9.50
2019-04-26T22:56:23.369Z,9.73
2019-04-26T22:58:50.368Z,8.88
2019-04-26T23:01:17.593Z,11.30
2019-04-26T23:03:46.578Z,9.60
2019-04-26T23:06:16.581Z,9.75
2019-04-26T23:08:43.941Z,9.63
2019-04-26T23:11:11.247Z,11.15
2019-04-26T23:13:41.205Z,12.23
2019-04-26T23:16:11.384Z,11.05
2019-04-26T23:18:46.231Z,11.25
2019-04-26T23:21:18.437Z,9.80
2019-04-26T23:23:45.567Z,11.40
2019-04-26T23:26:14.386Z,13.80
2019-04-26T23:28:43.282Z,15.03
2019-04-26T23:31:10.935Z,14.50
2019-04-26T23:33:38.034Z,13.13
2019-04-26T23:36:05.091Z,13.43
2019-04-26T23:38:34.588Z,13.75
2019-04-26T23:41:04.347Z,13.18
2019-04-26T23:43:32.367Z,14.98
2019-04-26T23:45:59.199Z,14.05
2019-04-26T23:48:25.991Z,13.58
2019-04-26T23:50:53.840Z,13.75
2019-04-26T23:53:21.413Z,12.98
2019-04-26T23:55:48.312Z,13.62
2019-04-26T23:58:15.387Z,12.98
